Terminal Aerodrome Forecast
Issued by NWS

Home | Current Version | Previous Version | Text Only | Print | Product List | Glossary On
Versions: 1 2 3 4 5 6 7 8 9 10 11 12 13 14 15 16 17 18 19 20 21 22 23 24 25 26 27 28 29 30 31 32
000
FTUS45 KLKN 221336 AAB
TAFELY
TAF AMD
KELY 221336Z 2214/2312 20011KT P6SM BKN045 OVC060
     FM221700 19015G25KT P6SM VCSH SCT030 BKN060
     FM222200 23020G30KT P6SM -SHRASN SCT030 OVC050
     FM230300 34010KT P6SM VCSH BKN040=

USA.gov is the U.S. government's official web portal to all federal, state and local government web resources and services.